KHEY/HEY METAR and TAF weather

Enter ICAO airport designator
Station Type Date Time Source
KHEY METAR 2020/02/29 03:28 UTC NOAA

KHEY 290328Z AUTO 30004KT 10SM CLR 10/03 A3022 RMK AO2 SLP236


Station Type Date Time Source
KHEY Decoded METAR 2020/02/29 03:28 UTC NOAA

Hanchey AHP / Ozark, AL, United States (KHEY) 31-21N 085-40W
Feb 28, 2020 - 10:28 PM EST / 2020.02.29 0328 UTC
Wind: from the WNW (300 degrees) at 5 MPH (4 KT):0
Visibility: 10 mile(s):0
Sky conditions: clear
Temperature: 50 F (10 C)
Dew Point: 37 F (3 C)
Relative Humidity: 61%
Pressure (altimeter): 30.22 in. Hg (1023 hPa)
ob: KHEY 290328Z AUTO 30004KT 10SM CLR 10/03 A3022 RMK AO2 SLP236
cycle: 3

Station Type Date Time Source
KHEY TAF UTC NOAA

Error!

Example: see airport list